Time;durP1;ratioP1;P1;durP2;ratioP2;P2;SDS_P1;SDS_P2;PMS_P1;PMS_P2;Temp;Humidity;BMP_temperature;BMP_pressure;BME280_temperature;BME280_humidity;BME280_pressure;Samples;Min_cycle;Max_cycle;Signal;HPM_P1;HPM_P2
2023/07/03 00:02:18;;;;;;;20.48;4.32;;;;;;;16.50;71.58;100941.47;4993663;28;20591;-74
2023/07/03 00:04:48;;;;;;;15.13;4.57;;;;;;;16.48;71.88;100943.91;4977241;28;20051;-74
2023/07/03 00:07:15;;;;;;;24.30;3.88;;;;;;;16.47;71.89;100936.31;4994103;28;20079;-74
2023/07/03 00:09:42;;;;;;;17.98;4.13;;;;;;;16.46;71.81;100934.84;4992782;28;20402;-75
2023/07/03 00:12:10;;;;;;;14.68;3.78;;;;;;;16.44;71.88;100929.94;4993645;28;20544;-75
2023/07/03 00:14:38;;;;;;;14.52;4.00;;;;;;;16.41;71.45;100917.47;4993463;28;20102;-75
2023/07/03 00:17:09;;;;;;;13.23;4.03;;;;;;;16.40;71.47;100921.34;4993976;28;20055;-75
2023/07/03 00:19:35;;;;;;;20.40;4.47;;;;;;;16.38;71.66;100925.75;4975936;28;20507;-75
2023/07/03 00:22:03;;;;;;;14.25;4.05;;;;;;;16.36;71.25;100926.22;4994063;28;20118;-75
2023/07/03 00:24:31;;;;;;;13.48;4.05;;;;;;;16.34;71.54;100923.28;4992853;28;20467;-74
2023/07/03 00:26:58;;;;;;;16.25;4.32;;;;;;;16.32;71.90;100921.06;4994024;28;20119;-75
2023/07/03 00:29:28;;;;;;;17.02;4.20;;;;;;;16.30;71.44;100915.44;4993199;28;20031;-75
2023/07/03 00:31:55;;;;;;;15.00;3.88;;;;;;;16.29;71.29;100918.59;4994217;28;20043;-75
2023/07/03 00:34:22;;;;;;;17.83;3.83;;;;;;;16.31;71.67;100914.22;4991801;28;20075;-75
2023/07/03 00:36:49;;;;;;;12.48;4.07;;;;;;;16.29;72.54;100921.28;4976054;28;20050;-75
2023/07/03 00:39:16;;;;;;;19.50;4.32;;;;;;;16.25;71.21;100926.84;4992886;28;20039;-75
2023/07/03 00:41:43;;;;;;;14.50;3.95;;;;;;;16.23;71.73;100931.22;4975801;28;20089;-75
2023/07/03 00:44:12;;;;;;;16.98;3.92;;;;;;;16.20;71.88;100921.41;4993671;28;20050;-75
2023/07/03 00:46:45;;;;;;;13.65;3.80;;;;;;;16.17;71.75;100917.72;4960049;28;20051;-75
2023/07/03 00:49:12;;;;;;;10.88;3.53;;;;;;;16.16;71.98;100927.00;4991932;28;20043;-75
2023/07/03 00:51:42;;;;;;;15.05;3.40;;;;;;;16.15;72.16;100922.09;4993158;28;20051;-75
2023/07/03 00:54:08;;;;;;;12.65;4.10;;;;;;;16.13;71.77;100919.16;4993533;28;20043;-75
2023/07/03 00:56:35;;;;;;;15.20;4.20;;;;;;;16.13;72.21;100921.84;4992889;28;20047;-75
2023/07/03 00:59:04;;;;;;;17.38;4.30;;;;;;;16.11;72.56;100925.00;4993452;28;20066;-74
2023/07/03 01:01:37;;;;;;;17.65;4.20;;;;;;;16.08;72.40;100920.56;4992694;28;20078;-75
2023/07/03 01:04:12;;;;;;;13.77;4.47;;;;;;;16.08;72.35;100919.81;4993417;28;20141;-75
2023/07/03 01:06:46;;;;;;;18.83;3.88;;;;;;;16.06;72.95;100922.97;4992958;28;20657;-74
2023/07/03 01:09:16;;;;;;;18.80;4.10;;;;;;;16.04;72.63;100925.41;4991422;28;20090;-74
2023/07/03 01:11:44;;;;;;;17.08;3.88;;;;;;;16.00;72.85;100917.56;4992611;28;20083;-75
2023/07/03 01:14:17;;;;;;;17.85;4.20;;;;;;;15.99;72.82;100923.41;4993232;28;20098;-75
2023/07/03 01:16:47;;;;;;;20.80;4.03;;;;;;;15.97;73.22;100912.41;4993480;28;20333;-74
2023/07/03 01:19:31;;;;;;;16.60;4.47;;;;;;;15.94;73.31;100918.72;4993143;28;20043;-74
2023/07/03 01:22:10;;;;;;;17.50;4.00;;;;;;;15.91;73.28;100916.97;4992887;28;20050;-74
2023/07/03 01:24:36;;;;;;;15.88;4.20;;;;;;;15.88;73.98;100920.59;4992619;28;20139;-74
2023/07/03 01:27:06;;;;;;;14.50;4.25;;;;;;;15.82;74.32;100919.81;4993255;28;20043;-74
2023/07/03 01:29:34;;;;;;;21.85;4.40;;;;;;;15.79;74.06;100915.38;4992623;28;20507;-74
2023/07/03 01:32:05;;;;;;;17.33;3.95;;;;;;;15.77;74.74;100913.16;4975377;28;20043;-75
2023/07/03 01:34:32;;;;;;;20.00;4.20;;;;;;;15.75;74.52;100904.09;4992490;28;20042;-75
2023/07/03 01:37:01;;;;;;;17.55;4.30;;;;;;;15.75;74.77;100904.09;4974751;28;20405;-75
2023/07/03 01:39:27;;;;;;;20.92;4.63;;;;;;;15.74;75.17;100911.41;4974655;28;20113;-75
2023/07/03 01:41:56;;;;;;;18.63;4.38;;;;;;;15.75;74.83;100914.84;4992990;28;20078;-74
2023/07/03 01:44:23;;;;;;;16.73;4.25;;;;;;;15.73;75.18;100904.56;4991883;28;20042;-75
2023/07/03 01:46:49;;;;;;;19.95;4.55;;;;;;;15.73;74.98;100906.50;4993098;28;20204;-75
2023/07/03 01:49:16;;;;;;;20.70;4.63;;;;;;;15.71;75.71;100901.63;4992718;28;20058;-75
2023/07/03 01:52:03;;;;;;;18.40;4.43;;;;;;;15.71;75.05;100903.56;4992117;28;20047;-75
2023/07/03 01:54:53;;;;;;;16.88;4.30;;;;;;;15.68;75.18;100892.56;4990953;28;20486;-75
2023/07/03 01:57:42;;;;;;;22.20;4.57;;;;;;;15.69;75.64;100898.66;4990743;28;20074;-75
2023/07/03 02:00:14;;;;;;;15.10;4.10;;;;;;;15.69;76.45;100895.97;4979792;28;20054;-74
2023/07/03 02:02:45;;;;;;;17.52;4.53;;;;;;;15.69;76.28;100895.97;4973979;28;20428;-75
2023/07/03 02:05:26;;;;;;;22.40;4.10;;;;;;;15.66;76.66;100900.34;4974997;28;20047;-75
2023/07/03 02:07:57;;;;;;;15.63;4.00;;;;;;;15.65;77.05;100898.13;4992654;28;20093;-76
2023/07/03 02:10:24;;;;;;;15.27;3.90;;;;;;;15.63;77.28;100905.91;4992343;28;20054;-76
2023/07/03 02:12:52;;;;;;;14.23;4.00;;;;;;;15.61;77.57;100900.28;4990838;28;20233;-75
2023/07/03 02:15:21;;;;;;;17.35;4.38;;;;;;;15.59;77.68;100892.72;4973847;28;20047;-75
2023/07/03 02:17:53;;;;;;;14.82;4.65;;;;;;;15.58;78.08;100899.28;4990577;28;20057;-75
2023/07/03 02:20:22;;;;;;;18.83;5.13;;;;;;;15.58;77.70;100899.28;4991795;28;20523;-75
2023/07/03 02:22:48;;;;;;;18.38;5.05;;;;;;;15.57;78.54;100908.53;4996141;28;20051;-75
2023/07/03 02:25:16;;;;;;;16.52;4.72;;;;;;;15.57;79.01;100902.44;4977881;28;20520;-75
2023/07/03 02:27:45;;;;;;;18.13;4.38;;;;;;;15.57;78.99;100902.44;4995440;28;20491;-75
2023/07/03 02:30:12;;;;;;;16.90;4.25;;;;;;;15.57;79.22;100903.19;4995688;28;20051;-75
2023/07/03 02:32:40;;;;;;;15.70;4.53;;;;;;;15.57;79.01;100905.13;4995365;28;20047;-75
2023/07/03 02:35:10;;;;;;;22.13;4.85;;;;;;;15.56;79.52;100900.94;4995262;28;20042;-75
2023/07/03 02:37:37;;;;;;;20.85;4.15;;;;;;;15.55;80.09;100900.19;4977460;28;20071;-75
2023/07/03 02:40:13;;;;;;;21.55;5.50;;;;;;;15.53;80.08;100904.56;4995767;28;20081;-75
2023/07/03 02:42:40;;;;;;;17.08;4.03;;;;;;;15.51;80.14;100905.03;4993960;28;20535;-75
2023/07/03 02:45:08;;;;;;;23.13;5.15;;;;;;;15.49;80.43;100904.75;4993793;28;20086;-75
2023/07/03 02:47:36;;;;;;;22.98;5.20;;;;;;;15.49;80.51;100902.06;4977428;28;20094;-75
2023/07/03 02:50:07;;;;;;;21.15;4.65;;;;;;;15.51;80.21;100904.28;4993536;28;20145;-75
2023/07/03 02:52:35;;;;;;;22.58;4.65;;;;;;;15.49;80.96;100902.06;4977271;28;20599;-75
2023/07/03 02:55:02;;;;;;;15.90;4.60;;;;;;;15.51;80.81;100901.59;4977602;28;20054;-75
2023/07/03 02:57:29;;;;;;;26.45;4.65;;;;;;;15.49;81.16;100901.34;4976896;28;20042;-75
2023/07/03 02:59:57;;;;;;;27.02;5.72;;;;;;;15.50;81.15;100897.44;4993852;28;20141;-75
2023/07/03 03:02:24;;;;;;;19.90;5.05;;;;;;;15.49;80.96;100894.03;4993260;28;20051;-75
2023/07/03 03:04:51;;;;;;;24.88;5.00;;;;;;;15.50;81.42;100900.88;4977278;28;20460;-75
2023/07/03 03:07:19;;;;;;;23.17;4.93;;;;;;;15.47;81.70;100901.06;4977005;28;20162;-75
2023/07/03 03:09:46;;;;;;;17.35;5.10;;;;;;;15.49;81.54;100893.28;4993867;28;20067;-75
2023/07/03 03:12:13;;;;;;;17.20;4.82;;;;;;;15.47;81.79;100893.75;4993296;28;20062;-75
2023/07/03 03:14:40;;;;;;;21.52;5.40;;;;;;;15.47;82.27;100896.44;4977023;28;20504;-75
2023/07/03 03:17:07;;;;;;;32.05;5.97;;;;;;;15.46;82.45;100891.53;4994982;28;20137;-75
2023/07/03 03:19:33;;;;;;;20.67;4.55;;;;;;;15.46;82.50;100894.22;4975980;28;20500;-75
2023/07/03 03:22:00;;;;;;;15.82;4.63;;;;;;;15.49;82.22;100901.34;4993322;28;20512;-75
2023/07/03 03:24:27;;;;;;;22.48;5.03;;;;;;;15.50;82.50;100892.09;4992486;28;20555;-75
2023/07/03 03:26:53;;;;;;;24.30;4.80;;;;;;;15.48;82.50;100892.56;4977200;28;20050;-75
2023/07/03 03:29:20;;;;;;;24.38;5.28;;;;;;;15.47;82.97;100891.06;4994282;28;20504;-75
2023/07/03 03:31:47;;;;;;;22.73;5.25;;;;;;;15.48;83.17;100895.22;4992881;28;20085;-75
2023/07/03 03:34:14;;;;;;;20.00;5.32;;;;;;;15.48;83.58;100899.84;4976461;28;20388;-75
2023/07/03 03:36:41;;;;;;;23.80;5.03;;;;;;;15.49;83.88;100901.34;4994395;28;20042;-75
2023/07/03 03:39:08;;;;;;;24.67;5.22;;;;;;;15.47;83.79;100891.06;4976837;28;20097;-75
2023/07/03 03:41:36;;;;;;;19.52;4.78;;;;;;;15.47;84.11;100893.75;4992547;28;20058;-76
2023/07/03 03:44:03;;;;;;;24.00;5.45;;;;;;;15.47;84.40;100884.97;4992885;28;20047;-75
2023/07/03 03:46:29;;;;;;;25.85;5.57;;;;;;;15.48;84.15;100883.75;4992019;28;20063;-75
2023/07/03 03:48:57;;;;;;;21.30;5.28;;;;;;;15.47;84.44;100891.06;4992217;28;20082;-75
2023/07/03 03:51:24;;;;;;;17.55;5.32;;;;;;;15.46;84.21;100886.91;4992505;28;20108;-75
2023/07/03 03:53:51;;;;;;;21.73;4.72;;;;;;;15.45;84.19;100890.81;4976805;28;20061;-75
2023/07/03 03:56:19;;;;;;;26.15;5.00;;;;;;;15.46;84.34;100886.19;4994019;28;20527;-75
2023/07/03 03:58:47;;;;;;;19.73;5.13;;;;;;;15.48;83.92;100876.44;4992824;28;20373;-75
2023/07/03 04:01:14;;;;;;;19.13;4.72;;;;;;;15.49;83.86;100877.19;4992949;28;20508;-75
2023/07/03 04:03:41;;;;;;;19.27;5.05;;;;;;;15.52;83.97;100889.66;4976210;28;20556;-75
2023/07/03 04:06:11;;;;;;;18.75;4.60;;;;;;;15.53;83.81;100891.16;4993925;28;20042;-75
2023/07/03 04:08:37;;;;;;;13.55;4.57;;;;;;;15.52;84.25;100890.41;4993651;28;20047;-75
2023/07/03 04:11:04;;;;;;;19.85;4.88;;;;;;;15.54;84.12;100901.41;4993685;28;20055;-75
2023/07/03 04:13:30;;;;;;;18.50;5.35;;;;;;;15.54;83.71;100900.66;4993919;28;20490;-75
2023/07/03 04:16:00;;;;;;;14.85;4.32;;;;;;;15.53;84.07;100905.28;4993513;28;20047;-75
2023/07/03 04:18:28;;;;;;;22.23;5.28;;;;;;;15.52;84.50;100911.88;4993610;28;20047;-75
2023/07/03 04:20:55;;;;;;;20.50;4.57;;;;;;;15.52;84.26;100911.13;4994067;28;20086;-75
2023/07/03 04:23:23;;;;;;;22.38;4.75;;;;;;;15.52;83.95;100911.88;4993461;28;20053;-77
2023/07/03 04:25:51;;;;;;;20.08;4.82;;;;;;;15.50;83.85;100914.28;4994140;28;20047;-77
2023/07/03 04:28:19;;;;;;;20.15;4.82;;;;;;;15.51;83.93;100913.06;4976441;28;20098;-76
2023/07/03 04:30:47;;;;;;;16.38;4.85;;;;;;;15.51;83.48;100915.03;4992264;28;20534;-77
2023/07/03 04:33:14;;;;;;;22.02;4.88;;;;;;;15.49;83.45;100917.44;4993897;28;20047;-77
2023/07/03 04:35:41;;;;;;;21.88;4.95;;;;;;;15.49;83.13;100912.81;4993564;28;20549;-74
2023/07/03 04:38:08;;;;;;;15.00;4.63;;;;;;;15.52;82.96;100921.88;4993926;28;20057;-76
2023/07/03 04:40:35;;;;;;;19.13;4.72;;;;;;;15.52;83.43;100922.59;4993228;28;20062;-76
2023/07/03 04:43:02;;;;;;;19.10;4.65;;;;;;;15.53;83.15;100921.41;4993054;28;20134;-74
2023/07/03 04:45:31;;;;;;;16.27;4.00;;;;;;;15.58;83.08;100925.38;4992727;28;20058;-74
2023/07/03 04:47:58;;;;;;;19.30;4.32;;;;;;;15.59;83.21;100921.50;4993860;28;20489;-77
2023/07/03 04:50:25;;;;;;;23.92;4.28;;;;;;;15.62;82.73;100929.31;4994003;28;20415;-76
2023/07/03 04:52:52;;;;;;;22.23;4.30;;;;;;;15.62;82.84;100932.00;4994316;28;20544;-76
2023/07/03 04:55:21;;;;;;;13.15;3.72;;;;;;;15.64;80.60;100940.31;4993693;28;20047;-76
2023/07/03 04:57:48;;;;;;;17.83;4.43;;;;;;;15.66;80.01;100927.19;4992365;28;20397;-76
2023/07/03 05:00:18;;;;;;;13.25;3.67;;;;;;;15.70;78.75;100928.91;4993651;28;20047;-76
2023/07/03 05:02:47;;;;;;;15.10;3.58;;;;;;;15.70;77.15;100928.91;4992732;28;20149;-76
2023/07/03 05:05:15;;;;;;;10.55;2.92;;;;;;;15.73;75.30;100930.66;4993886;28;20053;-76
2023/07/03 05:07:44;;;;;;;8.82;2.92;;;;;;;15.79;74.87;100929.53;4993472;28;20158;-76
2023/07/03 05:10:15;;;;;;;10.65;2.78;;;;;;;15.87;71.34;100929.88;4976208;28;20047;-76
2023/07/03 05:12:42;;;;;;;9.13;2.50;;;;;;;15.89;69.34;100938.19;4993152;28;20055;-77
2023/07/03 05:15:11;;;;;;;9.15;2.40;;;;;;;15.90;68.35;100937.72;4993355;28;20496;-76
2023/07/03 05:17:38;;;;;;;7.20;1.90;;;;;;;15.92;67.77;100935.31;4993562;28;20137;-76
2023/07/03 05:20:11;;;;;;;4.47;2.05;;;;;;;15.92;67.09;100935.31;4992543;28;20579;-76
2023/07/03 05:22:39;;;;;;;8.65;2.10;;;;;;;15.93;65.22;100936.03;4992096;28;20055;-76
2023/07/03 05:25:07;;;;;;;5.38;1.77;;;;;;;15.92;64.59;100932.63;4993778;28;20112;-77
2023/07/03 05:27:35;;;;;;;7.93;1.90;;;;;;;15.98;64.41;100938.78;4993242;28;20047;-76
2023/07/03 05:30:03;;;;;;;6.78;1.85;;;;;;;15.99;64.19;100942.22;4993135;28;20054;-76
2023/07/03 05:32:30;;;;;;;5.80;1.73;;;;;;;15.99;64.04;100948.28;4993425;28;20039;-76
2023/07/03 05:34:57;;;;;;;4.60;1.70;;;;;;;16.06;63.85;100946.41;4993227;28;20488;-77
2023/07/03 05:37:23;;;;;;;8.82;2.15;;;;;;;16.06;63.56;100947.16;4992639;28;20070;-77
2023/07/03 05:39:50;;;;;;;8.30;2.00;;;;;;;16.11;63.33;100943.78;4992923;28;20483;-75
2023/07/03 05:42:17;;;;;;;8.48;1.73;;;;;;;16.14;63.80;100948.22;4959646;28;20057;-77
2023/07/03 05:44:45;;;;;;;8.30;1.95;;;;;;;16.21;64.05;100947.06;4992952;28;20570;-78
2023/07/03 05:47:13;;;;;;;4.63;2.00;;;;;;;16.30;62.97;100950.34;4993283;28;20059;-76
2023/07/03 05:49:40;;;;;;;7.07;2.33;;;;;;;16.42;63.24;100953.84;4993109;28;20043;-76
2023/07/03 05:52:08;;;;;;;6.43;1.55;;;;;;;16.53;62.85;100953.22;4993326;28;20054;-74
2023/07/03 05:54:34;;;;;;;6.47;1.80;;;;;;;16.61;62.82;100951.59;4993158;28;20050;-75
2023/07/03 05:57:07;;;;;;;4.20;1.73;;;;;;;16.73;61.76;100958.56;4993055;28;20051;-74
2023/07/03 05:59:35;;;;;;;4.50;1.60;;;;;;;16.80;62.37;100958.13;4992703;28;20055;-74
2023/07/03 06:02:05;;;;;;;4.53;1.67;;;;;;;16.82;61.67;100961.06;4993016;28;20034;-75
2023/07/03 06:04:33;;;;;;;6.20;2.28;;;;;;;16.82;61.62;100963.03;4993080;28;20058;-76
2023/07/03 06:07:00;;;;;;;7.32;1.80;;;;;;;16.77;61.15;100956.41;4992800;28;20066;-75
2023/07/03 06:09:28;;;;;;;12.18;2.95;;;;;;;16.75;62.00;100961.53;4992968;28;20551;-75
2023/07/03 06:11:55;;;;;;;7.80;1.90;;;;;;;16.86;61.61;100955.47;4992063;28;20164;-76
2023/07/03 06:14:23;;;;;;;9.32;2.17;;;;;;;16.82;60.44;100969.13;4991302;28;20516;-75
2023/07/03 06:16:51;;;;;;;9.05;2.05;;;;;;;16.78;61.06;100965.22;4975378;28;20054;-75
2023/07/03 06:19:19;;;;;;;8.77;2.13;;;;;;;16.77;61.07;100975.22;4993023;28;20043;-77
2023/07/03 06:21:46;;;;;;;6.80;2.28;;;;;;;16.76;60.35;100976.44;4975511;28;20043;-76
2023/07/03 06:24:13;;;;;;;7.28;1.88;;;;;;;16.71;60.73;100965.63;4992952;28;20492;-77
2023/07/03 06:26:42;;;;;;;9.02;2.70;;;;;;;16.75;61.22;100966.91;4974257;28;20129;-79
2023/07/03 06:29:10;;;;;;;7.30;2.30;;;;;;;16.75;60.81;100979.59;4992711;28;20051;-79
2023/07/03 06:31:40;;;;;;;6.05;1.80;;;;;;;16.77;60.84;100975.22;4992841;28;20058;-79
2023/07/03 06:34:07;;;;;;;6.90;3.00;;;;;;;16.87;61.54;100978.47;4975318;28;20054;-79
2023/07/03 06:36:34;;;;;;;9.70;2.05;;;;;;;16.90;60.98;100983.63;4992588;28;20464;-78
2023/07/03 06:39:04;;;;;;;8.60;2.10;;;;;;;16.92;60.37;100978.50;4992756;28;20051;-78
2023/07/03 06:41:34;;;;;;;9.95;1.65;;;;;;;17.00;61.07;100976.88;4992192;28;20039;-78
2023/07/03 06:44:01;;;;;;;6.80;1.80;;;;;;;17.11;60.37;100980.84;4975425;28;20047;-79
2023/07/03 06:46:27;;;;;;;6.68;1.98;;;;;;;17.24;59.94;100970.41;4991047;28;20062;-79
2023/07/03 06:48:55;;;;;;;6.68;1.65;;;;;;;17.34;59.85;100966.31;4992919;28;20047;-79
2023/07/03 06:51:22;;;;;;;6.78;2.08;;;;;;;17.41;59.45;100971.25;4992346;28;20047;-76
2023/07/03 06:53:49;;;;;;;6.50;1.85;;;;;;;17.55;60.13;100983.09;4992883;28;20105;-76
2023/07/03 06:56:19;;;;;;;6.00;1.75;;;;;;;17.61;58.73;100975.75;4992416;28;20125;-76
2023/07/03 06:58:48;;;;;;;5.80;1.95;;;;;;;17.82;58.68;100977.13;4975360;28;20050;-76
2023/07/03 07:01:16;;;;;;;10.07;2.30;;;;;;;17.89;57.91;100978.63;4992384;28;20097;-78
2023/07/03 07:03:44;;;;;;;8.32;1.80;;;;;;;17.95;57.92;100968.59;4992253;28;20086;-77
2023/07/03 07:06:19;;;;;;;8.32;1.98;;;;;;;18.08;58.26;100976.94;4994057;28;20050;-77
2023/07/03 07:08:49;;;;;;;5.97;2.15;;;;;;;18.12;56.94;100977.44;4996062;28;20538;-74
2023/07/03 07:11:24;;;;;;;6.25;1.90;;;;;;;18.21;56.48;100973.81;4994615;28;20141;-76
2023/07/03 07:13:52;;;;;;;7.13;1.92;;;;;;;18.19;56.31;100979.69;4995642;28;20047;-76
2023/07/03 07:16:31;;;;;;;8.93;1.90;;;;;;;18.50;57.53;100984.13;4995054;28;20050;-77
2023/07/03 07:19:00;;;;;;;9.20;2.55;;;;;;;18.68;56.62;100974.16;4977628;28;20537;-76
2023/07/03 07:21:29;;;;;;;8.75;2.05;;;;;;;18.90;54.31;100977.56;4995070;28;20049;-75
2023/07/03 07:23:59;;;;;;;7.25;2.00;;;;;;;19.10;54.98;100984.69;4995496;28;20134;-76
2023/07/03 07:26:30;;;;;;;9.23;1.73;;;;;;;19.00;54.03;100986.16;4977062;28;20051;-76
2023/07/03 07:28:57;;;;;;;9.05;1.95;;;;;;;18.77;52.54;100980.03;4995582;28;20047;-75
2023/07/03 07:31:25;;;;;;;5.38;1.42;;;;;;;18.54;53.35;100986.59;4995135;28;20042;-76
2023/07/03 07:33:52;;;;;;;8.02;1.90;;;;;;;18.58;53.92;100987.84;4977870;28;20043;-77
2023/07/03 07:36:21;;;;;;;5.88;2.10;;;;;;;18.61;54.31;100986.16;4995124;28;20468;-77
2023/07/03 07:38:52;;;;;;;5.40;1.98;;;;;;;18.57;53.49;100980.22;4994983;28;20542;-76
2023/07/03 07:41:24;;;;;;;5.32;1.70;;;;;;;18.50;53.13;100980.72;4994893;28;20051;-78
2023/07/03 07:43:53;;;;;;;4.88;2.30;;;;;;;18.44;52.45;100982.66;4995053;28;20452;-76
2023/07/03 07:46:20;;;;;;;8.50;2.38;;;;;;;18.25;51.84;100983.13;4977170;28;20098;-77
2023/07/03 07:48:47;;;;;;;7.03;2.00;;;;;;;18.10;52.41;101001.44;4995013;28;20126;-77
2023/07/03 07:51:14;;;;;;;11.25;2.03;;;;;;;18.08;52.71;100989.69;4995037;28;20483;-77
2023/07/03 07:53:41;;;;;;;4.57;1.50;;;;;;;18.06;52.90;100992.13;4994159;28;20400;-77
2023/07/03 07:56:09;;;;;;;9.00;2.22;;;;;;;18.12;53.24;100993.63;4977303;28;20078;-77
2023/07/03 07:58:37;;;;;;;7.53;2.13;;;;;;;18.31;54.57;100994.66;4976988;28;20051;-77
2023/07/03 08:01:04;;;;;;;6.43;1.88;;;;;;;18.62;54.78;100995.72;4994970;28;20062;-77
2023/07/03 08:03:30;;;;;;;8.50;1.90;;;;;;;19.14;53.79;100992.53;4994520;28;20093;-77
2023/07/03 08:06:03;;;;;;;7.32;2.15;;;;;;;19.48;52.88;100996.63;4977154;28;20051;-77
2023/07/03 08:08:32;;;;;;;6.63;1.60;;;;;;;19.99;52.29;100994.50;4993922;28;20047;-78
2023/07/03 08:11:02;;;;;;;9.23;1.80;;;;;;;20.33;49.68;100983.50;4994444;28;20054;-76
2023/07/03 08:13:30;;;;;;;7.35;2.45;;;;;;;20.04;49.43;100988.31;4994841;28;20118;-77
2023/07/03 08:15:57;;;;;;;8.15;2.10;;;;;;;19.64;50.31;100976.94;4976918;28;20054;-80
2023/07/03 08:18:25;;;;;;;7.10;2.05;;;;;;;19.49;50.64;100984.59;4993376;28;20571;-79
2023/07/03 08:20:52;;;;;;;7.95;2.00;;;;;;;19.29;50.66;100982.91;4977297;28;20051;-78
2023/07/03 08:23:19;;;;;;;9.52;2.05;;;;;;;18.97;51.29;100995.97;4993790;28;20131;-79
2023/07/03 08:25:51;;;;;;;6.75;1.95;;;;;;;18.75;51.77;100998.66;4994731;28;20047;-80
2023/07/03 08:28:19;;;;;;;4.72;1.88;;;;;;;18.71;52.04;100992.78;4994105;28;20054;-79
2023/07/03 08:30:46;;;;;;;8.95;2.00;;;;;;;18.61;52.56;100996.94;4992934;28;20412;-79
2023/07/03 08:33:13;;;;;;;10.25;2.65;;;;;;;18.66;52.95;101007.00;4976530;28;20051;-79
2023/07/03 08:35:41;;;;;;;5.03;2.20;;;;;;;18.59;52.72;101013.56;4994135;28;20122;-79
2023/07/03 08:38:10;;;;;;;5.38;2.30;;;;;;;18.53;52.14;101001.31;4976653;28;20086;-79
2023/07/03 08:40:37;;;;;;;9.07;2.67;;;;;;;18.39;52.93;101000.31;4994241;28;20047;-78
2023/07/03 08:43:08;;;;;;;6.20;1.50;;;;;;;18.36;53.81;101011.34;4994502;28;20114;-78
2023/07/03 08:45:41;;;;;;;6.13;1.70;;;;;;;18.26;54.87;101013.50;4992987;28;20121;-78
2023/07/03 08:48:13;;;;;;;5.47;2.13;;;;;;;18.09;55.36;101020.78;4959925;28;20094;-78
2023/07/03 08:50:45;;;;;;;9.27;2.42;;;;;;;17.88;54.60;101023.66;4991509;28;20046;-78
2023/07/03 08:53:14;;;;;;;;;;;;;;;17.91;55.38;101022.69;4976365;28;20050;-79
2023/07/03 08:55:44;;;;;;;4.93;1.77;;;;;;;17.91;55.34;101030.03;4993325;28;20473;-79
2023/07/03 08:58:11;;;;;;;7.57;1.80;;;;;;;17.94;55.39;101029.06;4993950;28;20047;-79
2023/07/03 09:00:51;;;;;;;5.57;2.22;;;;;;;18.12;54.75;101020.56;4975512;28;20081;-79
2023/07/03 09:03:24;;;;;;;7.20;2.00;;;;;;;18.44;54.38;101023.09;4993437;28;20039;-78
2023/07/03 09:06:40;;;;;;;3.53;1.75;;;;;;;18.60;53.00;101019.72;4976035;28;20043;-79
2023/07/03 09:09:30;;;;;;;6.63;1.88;;;;;;;18.47;52.20;101019.41;4914454;29;20503;-78
2023/07/03 09:12:17;;;;;;;6.30;1.92;;;;;;;18.32;52.60;101033.13;4897687;29;20637;-77
2023/07/03 09:14:50;;;;;;;5.05;1.38;;;;;;;18.24;52.89;101029.41;4914454;29;20083;-76
2023/07/03 09:17:18;;;;;;;6.78;1.60;;;;;;;18.23;52.14;101028.69;4914196;29;20081;-77
2023/07/03 09:19:48;;;;;;;5.55;2.15;;;;;;;18.26;51.90;101032.38;4914410;29;20131;-76
2023/07/03 09:22:32;;;;;;;4.22;2.03;;;;;;;18.50;52.90;101031.94;4913991;29;20048;-76
2023/07/03 09:25:02;;;;;;;6.20;1.90;;;;;;;18.78;52.42;101023.94;4914569;29;20088;-77
2023/07/03 09:27:30;;;;;;;8.70;1.67;;;;;;;19.12;51.62;101022.69;4913728;29;20051;-75
2023/07/03 09:30:04;;;;;;;4.80;1.80;;;;;;;19.63;51.20;101021.38;4913521;29;20144;-75
2023/07/03 09:32:32;;;;;;;7.57;2.00;;;;;;;20.33;50.29;101026.75;4913611;29;20064;-75
2023/07/03 09:34:58;;;;;;;6.53;1.73;;;;;;;20.95;49.13;101014.28;4912983;29;20124;-76
2023/07/03 09:37:27;;;;;;;5.55;1.92;;;;;;;20.72;48.12;101018.44;4912133;29;20101;-75
2023/07/03 09:39:54;;;;;;;7.80;1.70;;;;;;;20.84;47.56;101025.19;4914262;29;20049;-75
2023/07/03 09:42:22;;;;;;;3.38;1.90;;;;;;;20.84;47.42;101031.34;4932870;28;20567;-75
2023/07/03 09:44:49;;;;;;;6.43;1.80;;;;;;;20.56;47.05;101026.13;4993213;28;20039;-75
2023/07/03 09:47:21;;;;;;;6.10;1.90;;;;;;;20.33;49.30;101026.75;4992701;28;20724;-76
2023/07/03 09:49:49;;;;;;;4.68;1.75;;;;;;;20.17;49.13;101036.41;4992497;28;20122;-75
2023/07/03 09:52:16;;;;;;;7.03;1.98;;;;;;;20.16;47.15;101032.97;4992969;28;20110;-75
2023/07/03 09:54:44;;;;;;;5.45;1.90;;;;;;;19.99;47.23;101035.03;4992568;28;20501;-75
2023/07/03 09:57:25;;;;;;;5.60;2.05;;;;;;;19.88;47.59;101037.78;4993061;28;20054;-76
2023/07/03 10:00:30;;;;;;;5.53;1.88;;;;;;;19.73;48.77;101051.56;4991775;28;20451;-74
2023/07/03 10:02:57;;;;;;;6.80;1.98;;;;;;;19.73;48.67;101050.81;4973636;28;20078;-76
2023/07/03 10:05:30;;;;;;;3.85;1.95;;;;;;;19.70;49.58;101049.13;4992227;28;20134;-75
2023/07/03 10:08:02;;;;;;;5.03;2.20;;;;;;;19.62;48.87;101043.47;4975062;28;20050;-77
2023/07/03 10:10:33;;;;;;;3.15;1.70;;;;;;;19.56;48.88;101043.53;4992721;28;20049;-76
2023/07/03 10:13:42;;;;;;;6.60;1.95;;;;;;;19.38;50.10;101043.28;4992657;28;20051;-75
2023/07/03 10:16:12;;;;;;;14.45;2.22;;;;;;;19.32;49.81;101054.06;4953269;28;20086;-75
2023/07/03 10:18:44;;;;;;;8.38;1.90;;;;;;;19.38;50.24;101054.06;4991550;28;20126;-75
2023/07/03 10:21:16;;;;;;;4.60;2.13;;;;;;;19.23;51.13;101046.22;4992475;28;20564;-76
2023/07/03 10:23:44;;;;;;;6.32;1.77;;;;;;;19.49;50.53;101056.75;4974778;28;20530;-74
2023/07/03 10:26:38;;;;;;;7.60;2.10;;;;;;;19.84;51.48;101053.50;4992954;28;20493;-78
2023/07/03 10:29:21;;;;;;;4.55;1.60;;;;;;;20.15;48.94;101055.84;4993034;28;20481;-77
2023/07/03 10:31:52;;;;;;;6.65;2.10;;;;;;;20.46;48.62;101068.22;4991117;28;20081;-75
2023/07/03 10:34:38;;;;;;;12.90;2.30;;;;;;;20.79;47.74;101066.56;4992285;28;20551;-73
2023/07/03 10:37:06;;;;;;;8.65;2.08;;;;;;;20.71;46.23;101060.25;4992476;28;20126;-74
2023/07/03 10:39:41;;;;;;;8.60;2.20;;;;;;;20.40;47.50;101051.31;4974729;28;20436;-75
2023/07/03 10:42:24;;;;;;;3.88;1.80;;;;;;;20.29;47.23;101057.50;4978065;28;20057;-76
2023/07/03 10:44:58;;;;;;;8.13;2.55;;;;;;;20.21;46.95;101061.22;4978230;28;20051;-75
2023/07/03 10:47:36;;;;;;;8.00;2.33;;;;;;;20.15;48.22;101065.91;4995143;28;20452;-74
2023/07/03 10:50:03;;;;;;;11.18;1.95;;;;;;;19.96;47.67;101063.78;4995949;28;20043;-75
2023/07/03 10:52:38;;;;;;;7.40;2.03;;;;;;;19.84;49.14;101065.03;4995428;28;20051;-75
2023/07/03 10:55:22;;;;;;;10.48;2.05;;;;;;;19.61;49.67;101071.72;4977909;28;20480;-77
2023/07/03 10:57:51;;;;;;;5.45;2.10;;;;;;;19.42;51.02;101082.28;4995420;28;20590;-77
2023/07/03 11:00:30;;;;;;;8.13;2.40;;;;;;;19.27;53.17;101071.72;4995787;28;20515;-77
2023/07/03 11:03:23;;;;;;;9.48;2.22;;;;;;;19.08;55.09;101073.47;4995249;28;20047;-76
2023/07/03 11:06:01;;;;;;;8.35;2.70;;;;;;;18.86;57.11;101076.88;4995843;28;20051;-76
2023/07/03 11:08:40;;;;;;;5.70;2.08;;;;;;;18.66;58.61;101071.69;4977791;28;20074;-76
2023/07/03 11:11:34;;;;;;;10.10;2.70;;;;;;;18.58;59.70;101081.44;4995309;28;20090;-76
2023/07/03 11:14:20;;;;;;;13.75;3.33;;;;;;;18.48;60.09;101077.50;4978455;28;20504;-76
2023/07/03 11:17:02;;;;;;;8.85;2.83;;;;;;;18.42;60.54;101088.25;4995204;28;20045;-75
2023/07/03 11:19:29;;;;;;;11.20;2.70;;;;;;;18.31;62.28;101080.91;4977834;28;20141;-76
2023/07/03 11:22:13;;;;;;;7.05;2.47;;;;;;;18.32;62.14;101079.69;4995823;28;20507;-76
2023/07/03 11:24:42;;;;;;;8.80;2.70;;;;;;;18.35;62.14;101085.31;4995347;28;20095;-75
2023/07/03 11:27:12;;;;;;;8.63;2.65;;;;;;;18.45;61.55;101076.50;4995473;28;20116;-74
2023/07/03 11:29:42;;;;;;;12.65;2.70;;;;;;;18.65;61.50;101078.31;4994851;28;20042;-75
2023/07/03 11:32:10;;;;;;;10.10;2.40;;;;;;;18.84;58.60;101078.59;4994794;28;20102;-76
2023/07/03 11:34:37;;;;;;;5.63;2.10;;;;;;;19.50;57.27;101061.66;4994765;28;20078;-75
2023/07/03 11:37:27;;;;;;;8.93;2.35;;;;;;;20.12;54.93;101072.31;4977294;28;20047;-75